TAPA

V.C. Bird International Airport

St. George, Antigua and Barbuda
TAF TAPA 201100Z 2012/2112 10016KT 9999 SCT019
Issued Valid From Valid To
Jul-20 @ 11:00 UTC
(4 hours ago)
Jul-20 @ 12:00 UTC
(3 hours ago)
Jul-21 @ 12:00 UTC
(in 21 hours)
Jul-20 @ 12:00 to Jul-21 @ 12:00
TAF TAPA 201100Z 2012/2112 10016KT 9999 SCT019
Wind Visibility Clouds
100° at 16 knots 10,000+ meters
  • Scattered at 1,900' AGL
TAF TAPA 201100Z 2012/2112 10016KT 9999 SCT019
Issued Jul-20 @ 11:00 UTC
(4 hours ago)
Valid From Jul-20 @ 12:00 UTC
(3 hours ago)
Valid To Jul-21 @ 12:00 UTC
(in 21 hours)
Jul-20 @ 12:00 - Jul-21 @ 12:00
Wind Visibility
100° at 16 knots 10,000+ meters
Clouds
  • Scattered at 1,900' AGL